sensor_id;sensor_type;location;lat;lon;timestamp;P1;durP1;ratioP1;P2;durP2;ratioP2
8042;SDS011;4064;48.132;11.366;2022-08-19T00:00:28;9.63;;;8.63;;
8042;SDS011;4064;48.132;11.366;2022-08-19T00:02:53;10.13;;;9.07;;
8042;SDS011;4064;48.132;11.366;2022-08-19T00:05:20;10.37;;;9.37;;
8042;SDS011;4064;48.132;11.366;2022-08-19T00:07:46;12.43;;;9.87;;
8042;SDS011;4064;48.132;11.366;2022-08-19T00:10:13;11.67;;;10.47;;
8042;SDS011;4064;48.132;11.366;2022-08-19T00:12:40;12.50;;;11.30;;
8042;SDS011;4064;48.132;11.366;2022-08-19T00:15:10;13.20;;;11.93;;
8042;SDS011;4064;48.132;11.366;2022-08-19T00:17:39;11.70;;;10.50;;
8042;SDS011;4064;48.132;11.366;2022-08-19T00:20:06;12.53;;;11.23;;
8042;SDS011;4064;48.132;11.366;2022-08-19T00:22:33;13.53;;;9.80;;
8042;SDS011;4064;48.132;11.366;2022-08-19T00:24:59;12.03;;;9.97;;
8042;SDS011;4064;48.132;11.366;2022-08-19T00:27:25;10.40;;;9.27;;
8042;SDS011;4064;48.132;11.366;2022-08-19T00:29:51;11.17;;;10.03;;
8042;SDS011;4064;48.132;11.366;2022-08-19T00:32:16;10.97;;;9.93;;
8042;SDS011;4064;48.132;11.366;2022-08-19T00:34:42;11.67;;;10.47;;
8042;SDS011;4064;48.132;11.366;2022-08-19T00:37:08;11.43;;;10.20;;
8042;SDS011;4064;48.132;11.366;2022-08-19T00:39:34;11.90;;;10.27;;
8042;SDS011;4064;48.132;11.366;2022-08-19T00:42:00;13.70;;;12.30;;
8042;SDS011;4064;48.132;11.366;2022-08-19T00:44:26;16.40;;;12.40;;
8042;SDS011;4064;48.132;11.366;2022-08-19T00:46:56;11.40;;;10.20;;
8042;SDS011;4064;48.132;11.366;2022-08-19T00:51:57;12.27;;;11.07;;
8042;SDS011;4064;48.132;11.366;2022-08-19T00:54:28;12.67;;;11.43;;
8042;SDS011;4064;48.132;11.366;2022-08-19T00:56:56;15.57;;;13.97;;
8042;SDS011;4064;48.132;11.366;2022-08-19T00:59:24;17.10;;;12.40;;
8042;SDS011;4064;48.132;11.366;2022-08-19T01:01:50;13.13;;;11.83;;
8042;SDS011;4064;48.132;11.366;2022-08-19T01:04:17;12.67;;;11.37;;
8042;SDS011;4064;48.132;11.366;2022-08-19T01:06:42;13.93;;;12.53;;
8042;SDS011;4064;48.132;11.366;2022-08-19T01:09:08;12.90;;;11.60;;
8042;SDS011;4064;48.132;11.366;2022-08-19T01:11:35;13.00;;;11.77;;
8042;SDS011;4064;48.132;11.366;2022-08-19T01:14:05;12.70;;;11.47;;
8042;SDS011;4064;48.132;11.366;2022-08-19T01:16:32;13.70;;;12.27;;
8042;SDS011;4064;48.132;11.366;2022-08-19T01:18:59;13.13;;;12.00;;
8042;SDS011;4064;48.132;11.366;2022-08-19T01:24:12;13.07;;;11.83;;
8042;SDS011;4064;48.132;11.366;2022-08-19T01:26:38;13.00;;;11.73;;
8042;SDS011;4064;48.132;11.366;2022-08-19T01:29:07;13.57;;;11.53;;
8042;SDS011;4064;48.132;11.366;2022-08-19T01:31:34;13.83;;;12.20;;
8042;SDS011;4064;48.132;11.366;2022-08-19T01:34:01;13.10;;;11.90;;
8042;SDS011;4064;48.132;11.366;2022-08-19T01:36:32;12.80;;;11.60;;
8042;SDS011;4064;48.132;11.366;2022-08-19T01:39:12;13.03;;;11.73;;
8042;SDS011;4064;48.132;11.366;2022-08-19T01:41:42;12.97;;;10.80;;
8042;SDS011;4064;48.132;11.366;2022-08-19T01:44:08;12.07;;;10.87;;
8042;SDS011;4064;48.132;11.366;2022-08-19T01:46:34;11.40;;;10.30;;
8042;SDS011;4064;48.132;11.366;2022-08-19T01:49:02;13.37;;;12.07;;
8042;SDS011;4064;48.132;11.366;2022-08-19T01:51:29;11.70;;;10.50;;
8042;SDS011;4064;48.132;11.366;2022-08-19T01:53:55;12.87;;;11.63;;
8042;SDS011;4064;48.132;11.366;2022-08-19T01:56:22;13.80;;;12.40;;
8042;SDS011;4064;48.132;11.366;2022-08-19T01:58:49;11.77;;;10.50;;
8042;SDS011;4064;48.132;11.366;2022-08-19T02:01:19;12.40;;;10.97;;
8042;SDS011;4064;48.132;11.366;2022-08-19T02:03:44;11.80;;;10.70;;
8042;SDS011;4064;48.132;11.366;2022-08-19T02:06:10;11.10;;;10.10;;
8042;SDS011;4064;48.132;11.366;2022-08-19T02:08:37;12.40;;;10.30;;
8042;SDS011;4064;48.132;11.366;2022-08-19T02:11:24;11.27;;;10.17;;
8042;SDS011;4064;48.132;11.366;2022-08-19T02:13:53;10.20;;;9.23;;
8042;SDS011;4064;48.132;11.366;2022-08-19T02:16:20;12.00;;;10.33;;
8042;SDS011;4064;48.132;11.366;2022-08-19T02:18:46;11.50;;;10.40;;
8042;SDS011;4064;48.132;11.366;2022-08-19T02:21:20;10.97;;;9.60;;
8042;SDS011;4064;48.132;11.366;2022-08-19T02:23:46;10.23;;;8.80;;
8042;SDS011;4064;48.132;11.366;2022-08-19T02:26:12;9.97;;;9.00;;
8042;SDS011;4064;48.132;11.366;2022-08-19T02:28:39;9.57;;;8.67;;
8042;SDS011;4064;48.132;11.366;2022-08-19T02:31:12;10.63;;;9.50;;
8042;SDS011;4064;48.132;11.366;2022-08-19T02:33:43;9.77;;;8.73;;
8042;SDS011;4064;48.132;11.366;2022-08-19T02:36:12;9.63;;;8.67;;
8042;SDS011;4064;48.132;11.366;2022-08-19T02:38:38;8.83;;;7.90;;
8042;SDS011;4064;48.132;11.366;2022-08-19T02:41:07;8.97;;;7.70;;
8042;SDS011;4064;48.132;11.366;2022-08-19T02:43:40;8.93;;;8.07;;
8042;SDS011;4064;48.132;11.366;2022-08-19T02:46:24;10.07;;;8.20;;
8042;SDS011;4064;48.132;11.366;2022-08-19T02:48:52;7.90;;;7.10;;
8042;SDS011;4064;48.132;11.366;2022-08-19T02:51:22;9.00;;;7.67;;
8042;SDS011;4064;48.132;11.366;2022-08-19T02:53:50;8.50;;;7.70;;
8042;SDS011;4064;48.132;11.366;2022-08-19T02:56:17;8.63;;;7.70;;
8042;SDS011;4064;48.132;11.366;2022-08-19T02:58:43;8.73;;;7.90;;
8042;SDS011;4064;48.132;11.366;2022-08-19T03:01:10;8.57;;;7.77;;
8042;SDS011;4064;48.132;11.366;2022-08-19T03:03:36;9.20;;;7.80;;
8042;SDS011;4064;48.132;11.366;2022-08-19T03:06:10;7.53;;;6.83;;
8042;SDS011;4064;48.132;11.366;2022-08-19T03:08:38;11.60;;;9.20;;
8042;SDS011;4064;48.132;11.366;2022-08-19T03:11:05;8.97;;;8.07;;
8042;SDS011;4064;48.132;11.366;2022-08-19T03:13:31;9.00;;;8.10;;
8042;SDS011;4064;48.132;11.366;2022-08-19T03:15:57;9.70;;;8.23;;
8042;SDS011;4064;48.132;11.366;2022-08-19T03:18:23;10.30;;;8.87;;
8042;SDS011;4064;48.132;11.366;2022-08-19T03:20:49;8.80;;;7.90;;
8042;SDS011;4064;48.132;11.366;2022-08-19T03:23:21;8.20;;;7.40;;
8042;SDS011;4064;48.132;11.366;2022-08-19T03:25:48;8.50;;;7.70;;
8042;SDS011;4064;48.132;11.366;2022-08-19T03:28:15;8.77;;;7.97;;
8042;SDS011;4064;48.132;11.366;2022-08-19T03:30:42;9.50;;;8.30;;
8042;SDS011;4064;48.132;11.366;2022-08-19T03:33:21;8.17;;;7.37;;
8042;SDS011;4064;48.132;11.366;2022-08-19T03:35:47;8.43;;;7.63;;
8042;SDS011;4064;48.132;11.366;2022-08-19T03:38:28;9.10;;;8.20;;
8042;SDS011;4064;48.132;11.366;2022-08-19T03:40:54;8.60;;;7.80;;
8042;SDS011;4064;48.132;11.366;2022-08-19T03:43:20;9.57;;;8.67;;
8042;SDS011;4064;48.132;11.366;2022-08-19T03:45:46;9.23;;;7.70;;
8042;SDS011;4064;48.132;11.366;2022-08-19T03:48:13;9.50;;;8.60;;
8042;SDS011;4064;48.132;11.366;2022-08-19T03:50:41;9.47;;;8.50;;
8042;SDS011;4064;48.132;11.366;2022-08-19T03:53:07;9.63;;;7.93;;
8042;SDS011;4064;48.132;11.366;2022-08-19T03:55:34;9.03;;;7.97;;
8042;SDS011;4064;48.132;11.366;2022-08-19T03:58:04;10.50;;;9.03;;
8042;SDS011;4064;48.132;11.366;2022-08-19T04:00:31;10.43;;;9.03;;
8042;SDS011;4064;48.132;11.366;2022-08-19T04:02:58;10.30;;;8.97;;
8042;SDS011;4064;48.132;11.366;2022-08-19T04:05:24;15.10;;;9.87;;
8042;SDS011;4064;48.132;11.366;2022-08-19T04:07:52;12.00;;;10.00;;
8042;SDS011;4064;48.132;11.366;2022-08-19T04:10:18;11.73;;;10.57;;
8042;SDS011;4064;48.132;11.366;2022-08-19T04:12:44;15.33;;;10.10;;
8042;SDS011;4064;48.132;11.366;2022-08-19T04:15:09;12.13;;;9.70;;
8042;SDS011;4064;48.132;11.366;2022-08-19T04:17:35;11.27;;;10.17;;
8042;SDS011;4064;48.132;11.366;2022-08-19T04:20:01;11.73;;;10.43;;
8042;SDS011;4064;48.132;11.366;2022-08-19T04:22:27;12.03;;;10.60;;
8042;SDS011;4064;48.132;11.366;2022-08-19T04:24:53;12.73;;;11.43;;
8042;SDS011;4064;48.132;11.366;2022-08-19T04:27:18;14.20;;;11.53;;
8042;SDS011;4064;48.132;11.366;2022-08-19T04:29:44;13.53;;;12.13;;
8042;SDS011;4064;48.132;11.366;2022-08-19T04:32:10;12.47;;;11.17;;
8042;SDS011;4064;48.132;11.366;2022-08-19T04:34:35;12.37;;;11.07;;
8042;SDS011;4064;48.132;11.366;2022-08-19T04:37:01;12.50;;;10.27;;
8042;SDS011;4064;48.132;11.366;2022-08-19T04:39:36;10.20;;;9.20;;
8042;SDS011;4064;48.132;11.366;2022-08-19T04:42:21;15.03;;;12.10;;
8042;SDS011;4064;48.132;11.366;2022-08-19T04:45:11;13.20;;;11.87;;
8042;SDS011;4064;48.132;11.366;2022-08-19T04:47:39;12.93;;;11.50;;
8042;SDS011;4064;48.132;11.366;2022-08-19T04:50:07;12.87;;;10.87;;
8042;SDS011;4064;48.132;11.366;2022-08-19T04:52:37;12.40;;;11.07;;
8042;SDS011;4064;48.132;11.366;2022-08-19T04:55:07;13.17;;;11.30;;
8042;SDS011;4064;48.132;11.366;2022-08-19T04:57:55;13.03;;;11.60;;
8042;SDS011;4064;48.132;11.366;2022-08-19T05:00:21;13.90;;;11.40;;
8042;SDS011;4064;48.132;11.366;2022-08-19T05:02:47;12.67;;;11.43;;
8042;SDS011;4064;48.132;11.366;2022-08-19T05:05:14;13.23;;;11.60;;
8042;SDS011;4064;48.132;11.366;2022-08-19T05:07:40;12.50;;;11.30;;
8042;SDS011;4064;48.132;11.366;2022-08-19T05:10:06;13.90;;;11.47;;
8042;SDS011;4064;48.132;11.366;2022-08-19T05:12:32;19.53;;;14.10;;
8042;SDS011;4064;48.132;11.366;2022-08-19T05:14:58;12.70;;;11.40;;
8042;SDS011;4064;48.132;11.366;2022-08-19T05:17:25;13.07;;;11.47;;
8042;SDS011;4064;48.132;11.366;2022-08-19T05:19:52;12.90;;;11.33;;
8042;SDS011;4064;48.132;11.366;2022-08-19T05:22:37;14.13;;;12.53;;
8042;SDS011;4064;48.132;11.366;2022-08-19T05:25:04;15.63;;;12.50;;
8042;SDS011;4064;48.132;11.366;2022-08-19T05:27:31;19.67;;;13.37;;
8042;SDS011;4064;48.132;11.366;2022-08-19T05:29:57;13.97;;;12.57;;
8042;SDS011;4064;48.132;11.366;2022-08-19T05:32:24;13.43;;;12.10;;
8042;SDS011;4064;48.132;11.366;2022-08-19T05:34:50;13.70;;;12.20;;
8042;SDS011;4064;48.132;11.366;2022-08-19T05:37:17;15.43;;;12.57;;
8042;SDS011;4064;48.132;11.366;2022-08-19T05:39:42;15.90;;;14.30;;
8042;SDS011;4064;48.132;11.366;2022-08-19T05:42:09;14.87;;;13.27;;
8042;SDS011;4064;48.132;11.366;2022-08-19T05:44:38;15.10;;;13.60;;
8042;SDS011;4064;48.132;11.366;2022-08-19T05:47:14;16.17;;;13.70;;
8042;SDS011;4064;48.132;11.366;2022-08-19T05:49:40;16.67;;;14.97;;
8042;SDS011;4064;48.132;11.366;2022-08-19T05:52:08;17.27;;;14.93;;
8042;SDS011;4064;48.132;11.366;2022-08-19T05:54:39;15.13;;;13.63;;
8042;SDS011;4064;48.132;11.366;2022-08-19T05:57:06;16.10;;;14.50;;
8042;SDS011;4064;48.132;11.366;2022-08-19T05:59:32;17.37;;;15.03;;
8042;SDS011;4064;48.132;11.366;2022-08-19T06:02:00;15.13;;;13.40;;
8042;SDS011;4064;48.132;11.366;2022-08-19T06:04:26;18.07;;;15.93;;
8042;SDS011;4064;48.132;11.366;2022-08-19T06:06:53;17.17;;;15.40;;
8042;SDS011;4064;48.132;11.366;2022-08-19T06:09:20;19.07;;;16.37;;
8042;SDS011;4064;48.132;11.366;2022-08-19T06:14:14;19.40;;;17.40;;
8042;SDS011;4064;48.132;11.366;2022-08-19T06:16:43;20.33;;;15.80;;
8042;SDS011;4064;48.132;11.366;2022-08-19T06:19:13;17.23;;;15.43;;
8042;SDS011;4064;48.132;11.366;2022-08-19T06:21:41;18.23;;;16.33;;
8042;SDS011;4064;48.132;11.366;2022-08-19T06:24:10;16.83;;;15.10;;
8042;SDS011;4064;48.132;11.366;2022-08-19T06:26:39;17.80;;;15.90;;
8042;SDS011;4064;48.132;11.366;2022-08-19T06:29:10;15.80;;;14.30;;
8042;SDS011;4064;48.132;11.366;2022-08-19T06:31:40;19.23;;;17.23;;
8042;SDS011;4064;48.132;11.366;2022-08-19T06:34:07;19.97;;;16.67;;
8042;SDS011;4064;48.132;11.366;2022-08-19T06:36:35;18.60;;;16.60;;
8042;SDS011;4064;48.132;11.366;2022-08-19T06:39:04;20.30;;;17.67;;
8042;SDS011;4064;48.132;11.366;2022-08-19T06:41:37;19.23;;;17.20;;
8042;SDS011;4064;48.132;11.366;2022-08-19T06:44:04;18.97;;;16.93;;
8042;SDS011;4064;48.132;11.366;2022-08-19T06:46:30;18.87;;;16.87;;
8042;SDS011;4064;48.132;11.366;2022-08-19T06:48:57;23.10;;;18.83;;
8042;SDS011;4064;48.132;11.366;2022-08-19T06:51:23;22.03;;;19.80;;
8042;SDS011;4064;48.132;11.366;2022-08-19T06:53:50;19.13;;;17.23;;
8042;SDS011;4064;48.132;11.366;2022-08-19T06:56:19;22.90;;;18.63;;
8042;SDS011;4064;48.132;11.366;2022-08-19T06:58:50;25.47;;;19.97;;
8042;SDS011;4064;48.132;11.366;2022-08-19T07:01:18;22.83;;;19.73;;
8042;SDS011;4064;48.132;11.366;2022-08-19T07:03:45;21.23;;;19.13;;
8042;SDS011;4064;48.132;11.366;2022-08-19T07:06:12;22.80;;;20.50;;
8042;SDS011;4064;48.132;11.366;2022-08-19T07:08:42;24.00;;;20.77;;
8042;SDS011;4064;48.132;11.366;2022-08-19T07:11:11;28.77;;;22.13;;
8042;SDS011;4064;48.132;11.366;2022-08-19T07:13:39;26.70;;;23.97;;
8042;SDS011;4064;48.132;11.366;2022-08-19T07:16:09;29.20;;;23.37;;
8042;SDS011;4064;48.132;11.366;2022-08-19T07:18:38;25.43;;;22.73;;
8042;SDS011;4064;48.132;11.366;2022-08-19T07:23:31;26.20;;;22.67;;
8042;SDS011;4064;48.132;11.366;2022-08-19T07:25:57;27.77;;;23.50;;
8042;SDS011;4064;48.132;11.366;2022-08-19T07:28:23;27.27;;;23.93;;
8042;SDS011;4064;48.132;11.366;2022-08-19T07:30:49;25.20;;;22.50;;
8042;SDS011;4064;48.132;11.366;2022-08-19T07:33:15;28.37;;;23.17;;
8042;SDS011;4064;48.132;11.366;2022-08-19T07:35:43;27.30;;;23.20;;
8042;SDS011;4064;48.132;11.366;2022-08-19T07:38:09;28.30;;;23.93;;
8042;SDS011;4064;48.132;11.366;2022-08-19T07:40:35;28.53;;;24.20;;
8042;SDS011;4064;48.132;11.366;2022-08-19T07:43:01;27.57;;;24.50;;
8042;SDS011;4064;48.132;11.366;2022-08-19T07:45:27;27.30;;;24.37;;
8042;SDS011;4064;48.132;11.366;2022-08-19T07:47:53;27.20;;;23.07;;
8042;SDS011;4064;48.132;11.366;2022-08-19T07:50:20;27.53;;;23.60;;
8042;SDS011;4064;48.132;11.366;2022-08-19T07:52:47;34.63;;;26.40;;
8042;SDS011;4064;48.132;11.366;2022-08-19T07:55:14;27.60;;;24.30;;
8042;SDS011;4064;48.132;11.366;2022-08-19T07:57:42;28.07;;;24.57;;
8042;SDS011;4064;48.132;11.366;2022-08-19T08:00:11;28.93;;;23.23;;
8042;SDS011;4064;48.132;11.366;2022-08-19T08:02:38;28.33;;;24.73;;
8042;SDS011;4064;48.132;11.366;2022-08-19T08:05:04;32.20;;;26.00;;
8042;SDS011;4064;48.132;11.366;2022-08-19T08:07:48;28.37;;;24.03;;
8042;SDS011;4064;48.132;11.366;2022-08-19T08:10:33;30.13;;;24.83;;
8042;SDS011;4064;48.132;11.366;2022-08-19T08:12:59;28.70;;;25.57;;
8042;SDS011;4064;48.132;11.366;2022-08-19T08:15:25;29.80;;;25.57;;
8042;SDS011;4064;48.132;11.366;2022-08-19T08:17:51;34.07;;;26.87;;
8042;SDS011;4064;48.132;11.366;2022-08-19T08:20:17;27.40;;;24.50;;
8042;SDS011;4064;48.132;11.366;2022-08-19T08:22:45;31.83;;;26.07;;
8042;SDS011;4064;48.132;11.366;2022-08-19T08:25:29;32.13;;;27.50;;
8042;SDS011;4064;48.132;11.366;2022-08-19T08:27:56;30.33;;;24.67;;
8042;SDS011;4064;48.132;11.366;2022-08-19T08:30:25;28.03;;;25.03;;
8042;SDS011;4064;48.132;11.366;2022-08-19T08:32:52;30.43;;;25.13;;
8042;SDS011;4064;48.132;11.366;2022-08-19T08:35:19;29.13;;;26.03;;
8042;SDS011;4064;48.132;11.366;2022-08-19T08:37:47;31.60;;;28.20;;
8042;SDS011;4064;48.132;11.366;2022-08-19T08:43:36;34.50;;;28.40;;
8042;SDS011;4064;48.132;11.366;2022-08-19T08:51:27;35.50;;;31.03;;
8042;SDS011;4064;48.132;11.366;2022-08-19T08:53:58;35.47;;;29.07;;
8042;SDS011;4064;48.132;11.366;2022-08-19T08:56:26;37.33;;;29.83;;
8042;SDS011;4064;48.132;11.366;2022-08-19T08:58:59;37.03;;;30.60;;
8042;SDS011;4064;48.132;11.366;2022-08-19T09:01:45;34.77;;;30.27;;
8042;SDS011;4064;48.132;11.366;2022-08-19T09:04:11;35.40;;;29.00;;
8042;SDS011;4064;48.132;11.366;2022-08-19T09:06:40;36.47;;;29.47;;
8042;SDS011;4064;48.132;11.366;2022-08-19T09:09:27;34.00;;;28.83;;
8042;SDS011;4064;48.132;11.366;2022-08-19T09:14:43;34.90;;;28.33;;
8042;SDS011;4064;48.132;11.366;2022-08-19T09:17:11;34.07;;;27.00;;
8042;SDS011;4064;48.132;11.366;2022-08-19T09:19:54;30.13;;;24.97;;
8042;SDS011;4064;48.132;11.366;2022-08-19T09:22:30;33.33;;;26.20;;
8042;SDS011;4064;48.132;11.366;2022-08-19T09:24:56;33.47;;;25.93;;
8042;SDS011;4064;48.132;11.366;2022-08-19T09:27:22;33.17;;;26.73;;
8042;SDS011;4064;48.132;11.366;2022-08-19T09:29:51;32.90;;;27.30;;
8042;SDS011;4064;48.132;11.366;2022-08-19T09:32:19;31.47;;;27.47;;
8042;SDS011;4064;48.132;11.366;2022-08-19T09:34:46;31.50;;;25.90;;
8042;SDS011;4064;48.132;11.366;2022-08-19T09:37:12;33.83;;;26.10;;
8042;SDS011;4064;48.132;11.366;2022-08-19T09:39:38;52.73;;;28.20;;
8042;SDS011;4064;48.132;11.366;2022-08-19T09:42:09;32.87;;;25.70;;
8042;SDS011;4064;48.132;11.366;2022-08-19T09:44:40;30.27;;;25.90;;
8042;SDS011;4064;48.132;11.366;2022-08-19T09:47:07;31.83;;;26.53;;
8042;SDS011;4064;48.132;11.366;2022-08-19T09:49:35;33.03;;;26.37;;
8042;SDS011;4064;48.132;11.366;2022-08-19T09:52:00;32.17;;;25.57;;
8042;SDS011;4064;48.132;11.366;2022-08-19T09:54:27;30.80;;;26.43;;
8042;SDS011;4064;48.132;11.366;2022-08-19T09:56:53;32.33;;;27.07;;
8042;SDS011;4064;48.132;11.366;2022-08-19T09:59:20;28.40;;;24.60;;
8042;SDS011;4064;48.132;11.366;2022-08-19T10:01:46;31.13;;;25.40;;
8042;SDS011;4064;48.132;11.366;2022-08-19T10:04:12;34.73;;;26.67;;
8042;SDS011;4064;48.132;11.366;2022-08-19T10:06:38;27.83;;;24.43;;
8042;SDS011;4064;48.132;11.366;2022-08-19T10:09:05;27.27;;;23.73;;
8042;SDS011;4064;48.132;11.366;2022-08-19T10:11:36;30.50;;;24.63;;
8042;SDS011;4064;48.132;11.366;2022-08-19T10:14:05;32.93;;;26.17;;
8042;SDS011;4064;48.132;11.366;2022-08-19T10:16:32;31.97;;;25.63;;
8042;SDS011;4064;48.132;11.366;2022-08-19T10:18:58;28.73;;;23.80;;
8042;SDS011;4064;48.132;11.366;2022-08-19T10:21:28;34.50;;;26.40;;
8042;SDS011;4064;48.132;11.366;2022-08-19T10:23:57;30.47;;;25.30;;
8042;SDS011;4064;48.132;11.366;2022-08-19T10:26:25;27.13;;;23.67;;
8042;SDS011;4064;48.132;11.366;2022-08-19T10:28:54;27.80;;;23.33;;
8042;SDS011;4064;48.132;11.366;2022-08-19T10:31:21;26.13;;;21.20;;
8042;SDS011;4064;48.132;11.366;2022-08-19T10:33:49;24.83;;;20.90;;
8042;SDS011;4064;48.132;11.366;2022-08-19T10:36:21;23.50;;;20.87;;
8042;SDS011;4064;48.132;11.366;2022-08-19T10:38:49;23.40;;;20.40;;
8042;SDS011;4064;48.132;11.366;2022-08-19T10:41:17;23.87;;;20.27;;
8042;SDS011;4064;48.132;11.366;2022-08-19T10:43:45;19.60;;;17.53;;
8042;SDS011;4064;48.132;11.366;2022-08-19T10:46:12;17.40;;;15.73;;
8042;SDS011;4064;48.132;11.366;2022-08-19T10:48:40;17.07;;;15.23;;
8042;SDS011;4064;48.132;11.366;2022-08-19T10:51:06;18.73;;;15.90;;
8042;SDS011;4064;48.132;11.366;2022-08-19T10:53:51;13.43;;;12.03;;
8042;SDS011;4064;48.132;11.366;2022-08-19T10:56:17;15.17;;;13.63;;
8042;SDS011;4064;48.132;11.366;2022-08-19T10:59:02;14.20;;;12.70;;
8042;SDS011;4064;48.132;11.366;2022-08-19T11:01:29;12.00;;;10.87;;
8042;SDS011;4064;48.132;11.366;2022-08-19T11:03:56;11.03;;;9.90;;
8042;SDS011;4064;48.132;11.366;2022-08-19T11:06:22;10.30;;;9.30;;
8042;SDS011;4064;48.132;11.366;2022-08-19T11:08:50;13.10;;;10.70;;
8042;SDS011;4064;48.132;11.366;2022-08-19T11:11:19;10.50;;;9.47;;
8042;SDS011;4064;48.132;11.366;2022-08-19T11:13:46;9.57;;;8.67;;
8042;SDS011;4064;48.132;11.366;2022-08-19T11:16:14;8.93;;;7.43;;
8042;SDS011;4064;48.132;11.366;2022-08-19T11:18:42;6.73;;;6.07;;
8042;SDS011;4064;48.132;11.366;2022-08-19T11:21:17;7.53;;;6.70;;
8042;SDS011;4064;48.132;11.366;2022-08-19T11:23:48;6.97;;;6.27;;
8042;SDS011;4064;48.132;11.366;2022-08-19T11:26:16;7.00;;;6.40;;
8042;SDS011;4064;48.132;11.366;2022-08-19T11:28:43;6.50;;;5.90;;
8042;SDS011;4064;48.132;11.366;2022-08-19T11:31:10;4.20;;;3.80;;
8042;SDS011;4064;48.132;11.366;2022-08-19T11:33:37;3.47;;;3.17;;
8042;SDS011;4064;48.132;11.366;2022-08-19T11:36:03;3.70;;;2.83;;
8042;SDS011;4064;48.132;11.366;2022-08-19T11:38:29;4.67;;;2.87;;
8042;SDS011;4064;48.132;11.366;2022-08-19T11:40:56;3.67;;;3.37;;
8042;SDS011;4064;48.132;11.366;2022-08-19T11:43:26;2.50;;;2.30;;
8042;SDS011;4064;48.132;11.366;2022-08-19T11:45:53;2.70;;;2.50;;
8042;SDS011;4064;48.132;11.366;2022-08-19T11:48:20;4.63;;;2.07;;
8042;SDS011;4064;48.132;11.366;2022-08-19T11:50:47;2.17;;;1.97;;
8042;SDS011;4064;48.132;11.366;2022-08-19T11:53:18;2.67;;;2.47;;
8042;SDS011;4064;48.132;11.366;2022-08-19T11:55:45;2.70;;;2.50;;
8042;SDS011;4064;48.132;11.366;2022-08-19T11:58:12;3.50;;;3.17;;
8042;SDS011;4064;48.132;11.366;2022-08-19T12:00:40;2.10;;;1.90;;
8042;SDS011;4064;48.132;11.366;2022-08-19T12:03:07;2.53;;;2.20;;
8042;SDS011;4064;48.132;11.366;2022-08-19T12:05:33;1.90;;;1.77;;
8042;SDS011;4064;48.132;11.366;2022-08-19T12:08:01;2.50;;;1.90;;
8042;SDS011;4064;48.132;11.366;2022-08-19T12:10:27;2.53;;;2.33;;
8042;SDS011;4064;48.132;11.366;2022-08-19T12:12:52;2.40;;;2.17;;
8042;SDS011;4064;48.132;11.366;2022-08-19T12:15:19;2.57;;;2.37;;
8042;SDS011;4064;48.132;11.366;2022-08-19T12:17:45;2.70;;;2.50;;
8042;SDS011;4064;48.132;11.366;2022-08-19T12:20:11;2.97;;;2.10;;
8042;SDS011;4064;48.132;11.366;2022-08-19T12:22:38;5.50;;;2.60;;
8042;SDS011;4064;48.132;11.366;2022-08-19T12:25:09;2.73;;;2.37;;
8042;SDS011;4064;48.132;11.366;2022-08-19T12:27:35;2.50;;;2.07;;
8042;SDS011;4064;48.132;11.366;2022-08-19T12:30:03;2.40;;;2.20;;
8042;SDS011;4064;48.132;11.366;2022-08-19T12:32:30;2.53;;;2.33;;
8042;SDS011;4064;48.132;11.366;2022-08-19T12:34:55;3.30;;;2.47;;
8042;SDS011;4064;48.132;11.366;2022-08-19T12:37:21;3.57;;;2.00;;
8042;SDS011;4064;48.132;11.366;2022-08-19T12:39:47;3.10;;;2.53;;
8042;SDS011;4064;48.132;11.366;2022-08-19T12:42:13;3.40;;;2.83;;
8042;SDS011;4064;48.132;11.366;2022-08-19T12:44:40;2.43;;;2.23;;
8042;SDS011;4064;48.132;11.366;2022-08-19T12:47:07;4.13;;;2.83;;
8042;SDS011;4064;48.132;11.366;2022-08-19T12:49:35;3.17;;;2.97;;
8042;SDS011;4064;48.132;11.366;2022-08-19T12:52:05;3.20;;;2.90;;
8042;SDS011;4064;48.132;11.366;2022-08-19T12:54:33;3.07;;;2.80;;
8042;SDS011;4064;48.132;11.366;2022-08-19T12:57:04;3.40;;;3.13;;
8042;SDS011;4064;48.132;11.366;2022-08-19T12:59:31;2.80;;;2.60;;
8042;SDS011;4064;48.132;11.366;2022-08-19T13:01:56;2.93;;;2.63;;
8042;SDS011;4064;48.132;11.366;2022-08-19T13:04:22;3.03;;;2.73;;
8042;SDS011;4064;48.132;11.366;2022-08-19T13:06:48;3.67;;;3.33;;
8042;SDS011;4064;48.132;11.366;2022-08-19T13:09:14;3.70;;;3.40;;
8042;SDS011;4064;48.132;11.366;2022-08-19T13:11:39;3.93;;;3.63;;
8042;SDS011;4064;48.132;11.366;2022-08-19T13:14:05;3.80;;;3.50;;
8042;SDS011;4064;48.132;11.366;2022-08-19T13:16:31;2.90;;;2.70;;
8042;SDS011;4064;48.132;11.366;2022-08-19T13:18:58;4.10;;;3.10;;
8042;SDS011;4064;48.132;11.366;2022-08-19T13:21:25;4.30;;;3.13;;
8042;SDS011;4064;48.132;11.366;2022-08-19T13:23:53;3.50;;;3.20;;
8042;SDS011;4064;48.132;11.366;2022-08-19T13:26:19;3.60;;;3.30;;
8042;SDS011;4064;48.132;11.366;2022-08-19T13:28:46;4.77;;;3.60;;
8042;SDS011;4064;48.132;11.366;2022-08-19T13:31:31;4.10;;;3.70;;
8042;SDS011;4064;48.132;11.366;2022-08-19T13:34:18;5.03;;;4.57;;
8042;SDS011;4064;48.132;11.366;2022-08-19T13:36:51;5.20;;;4.60;;
8042;SDS011;4064;48.132;11.366;2022-08-19T13:39:18;4.47;;;4.07;;
8042;SDS011;4064;48.132;11.366;2022-08-19T13:41:45;4.87;;;4.47;;
8042;SDS011;4064;48.132;11.366;2022-08-19T13:44:13;8.10;;;7.30;;
8042;SDS011;4064;48.132;11.366;2022-08-19T13:46:40;7.00;;;6.30;;
8042;SDS011;4064;48.132;11.366;2022-08-19T13:49:10;6.83;;;6.20;;
8042;SDS011;4064;48.132;11.366;2022-08-19T13:51:38;4.00;;;3.70;;
8042;SDS011;4064;48.132;11.366;2022-08-19T13:54:07;3.80;;;3.50;;
8042;SDS011;4064;48.132;11.366;2022-08-19T13:56:33;4.20;;;3.63;;
8042;SDS011;4064;48.132;11.366;2022-08-19T13:59:00;4.03;;;3.70;;
8042;SDS011;4064;48.132;11.366;2022-08-19T14:01:26;3.90;;;3.43;;
8042;SDS011;4064;48.132;11.366;2022-08-19T14:03:53;3.63;;;3.13;;
8042;SDS011;4064;48.132;11.366;2022-08-19T14:06:19;3.30;;;3.00;;
8042;SDS011;4064;48.132;11.366;2022-08-19T14:08:45;3.13;;;2.60;;
8042;SDS011;4064;48.132;11.366;2022-08-19T14:11:10;2.50;;;2.30;;
8042;SDS011;4064;48.132;11.366;2022-08-19T14:13:36;2.80;;;2.50;;
8042;SDS011;4064;48.132;11.366;2022-08-19T14:16:06;2.67;;;2.47;;
8042;SDS011;4064;48.132;11.366;2022-08-19T14:18:36;2.27;;;2.07;;
8042;SDS011;4064;48.132;11.366;2022-08-19T14:21:03;2.77;;;2.37;;
8042;SDS011;4064;48.132;11.366;2022-08-19T14:23:30;2.73;;;2.53;;
8042;SDS011;4064;48.132;11.366;2022-08-19T14:26:03;2.80;;;2.60;;
8042;SDS011;4064;48.132;11.366;2022-08-19T14:28:47;6.60;;;4.10;;
8042;SDS011;4064;48.132;11.366;2022-08-19T14:31:13;3.30;;;3.10;;
8042;SDS011;4064;48.132;11.366;2022-08-19T14:33:43;3.30;;;3.00;;
8042;SDS011;4064;48.132;11.366;2022-08-19T14:36:09;2.90;;;2.70;;
8042;SDS011;4064;48.132;11.366;2022-08-19T14:38:34;3.63;;;3.33;;
8042;SDS011;4064;48.132;11.366;2022-08-19T14:41:17;3.73;;;3.43;;
8042;SDS011;4064;48.132;11.366;2022-08-19T14:43:46;3.40;;;3.10;;
8042;SDS011;4064;48.132;11.366;2022-08-19T14:46:15;5.10;;;3.73;;
8042;SDS011;4064;48.132;11.366;2022-08-19T14:48:44;3.13;;;2.83;;
8042;SDS011;4064;48.132;11.366;2022-08-19T14:51:10;6.93;;;6.30;;
8042;SDS011;4064;48.132;11.366;2022-08-19T14:53:36;9.47;;;8.57;;
8042;SDS011;4064;48.132;11.366;2022-08-19T14:56:06;7.33;;;6.67;;
8042;SDS011;4064;48.132;11.366;2022-08-19T14:58:40;4.47;;;4.07;;
8042;SDS011;4064;48.132;11.366;2022-08-19T15:01:07;3.97;;;3.33;;
8042;SDS011;4064;48.132;11.366;2022-08-19T15:03:33;3.80;;;3.50;;
8042;SDS011;4064;48.132;11.366;2022-08-19T15:06:00;3.40;;;3.10;;
8042;SDS011;4064;48.132;11.366;2022-08-19T15:08:29;3.60;;;3.30;;
8042;SDS011;4064;48.132;11.366;2022-08-19T15:10:56;3.73;;;3.27;;
8042;SDS011;4064;48.132;11.366;2022-08-19T15:13:23;3.77;;;3.47;;